Time;durP1;ratioP1;P1;durP2;ratioP2;P2;SDS_P1;SDS_P2;PMS_P1;PMS_P2;Temp;Humidity;BMP_temperature;BMP_pressure;BME280_temperature;BME280_humidity;BME280_pressure;Samples;Min_cycle;Max_cycle;Signal;HPM_P1;HPM_P2
2022/08/08 00:00:05;;;;;;;;;2.67;2.67;;;;;21.59;38.20;101774.78;5082272;27;45511;-76
2022/08/08 00:03:00;;;;;;;;;3.00;3.00;;;;;21.55;38.30;101783.31;5097936;27;45475;-75
2022/08/08 00:05:59;;;;;;;;;4.00;3.00;;;;;21.49;38.70;101769.88;5081703;28;45506;-76
2022/08/08 00:08:40;;;;;;;;;2.33;2.33;;;;;21.45;38.63;101764.09;5081522;28;45569;-76
2022/08/08 00:11:16;;;;;;;;;3.00;3.00;;;;;21.42;38.68;101765.38;5081653;28;45542;-76
2022/08/08 00:14:20;;;;;;;;;3.00;3.00;;;;;21.37;39.14;101770.59;5079958;28;46742;-76
2022/08/08 00:17:05;;;;;;;;;4.00;4.00;;;;;21.29;39.57;101763.63;5088062;27;45405;-76
2022/08/08 00:20:10;;;;;;;;;3.00;3.00;;;;;21.30;39.87;101759.03;5075897;28;46993;-76
2022/08/08 00:22:46;;;;;;;;;5.33;4.33;;;;;21.25;39.89;101756.16;5018545;28;46141;-76
2022/08/08 00:25:25;;;;;;;;;4.00;3.67;;;;;21.19;40.01;101752.50;5018418;28;45411;-76
2022/08/08 00:27:55;;;;;;;;;3.00;3.00;;;;;21.18;40.23;101753.50;5046829;28;45411;-76
2022/08/08 00:30:22;;;;;;;;;2.00;2.00;;;;;21.15;40.10;101753.94;5076535;28;47245;-76
2022/08/08 00:32:56;;;;;;;;;2.67;2.33;;;;;21.17;40.31;101751.88;5074092;28;45562;-76
2022/08/08 00:35:24;;;;;;;;;2.00;2.00;;;;;21.13;41.10;101754.16;5076751;28;45317;-76
2022/08/08 00:38:14;;;;;;;;;3.67;3.33;;;;;21.09;40.74;101752.97;5073913;28;45287;-76
2022/08/08 00:41:13;;;;;;;;;4.00;4.00;;;;;21.02;40.85;101744.09;5085134;27;46134;-76
2022/08/08 00:43:47;;;;;;;;;4.33;4.33;;;;;21.03;41.12;101753.84;5063551;28;47527;-77
2022/08/08 00:46:47;;;;;;;;;3.00;3.00;;;;;21.03;41.20;101762.78;5088935;27;45279;-76
2022/08/08 00:49:31;;;;;;;;;5.00;3.67;;;;;21.01;41.56;101755.94;5081320;28;45389;-75
2022/08/08 00:52:05;;;;;;;;;5.67;4.00;;;;;20.98;41.66;101757.19;5066512;28;45393;-76
2022/08/08 00:54:52;;;;;;;;;2.67;2.67;;;;;20.95;41.18;101744.13;5086105;27;47555;-76
2022/08/08 00:57:39;;;;;;;;;3.00;3.00;;;;;20.89;41.61;101743.09;5080264;28;45394;-76
2022/08/08 01:00:18;;;;;;;;;4.67;4.67;;;;;20.84;41.97;101752.91;5090601;27;45370;-77
2022/08/08 01:03:22;;;;;;;;;6.00;5.00;;;;;20.83;42.47;101757.50;5068210;28;45552;-76
2022/08/08 01:06:09;;;;;;;;;4.67;3.00;;;;;20.78;42.16;101747.38;5095107;27;48212;-76
2022/08/08 01:08:43;;;;;;;;;4.00;4.00;;;;;20.78;42.62;101741.97;5080311;28;45237;-75
2022/08/08 01:11:17;;;;;;;;;6.33;5.00;;;;;20.76;42.82;101744.03;5082975;27;45359;-76
2022/08/08 01:14:13;;;;;;;;;4.67;4.67;;;;;20.73;43.16;101743.63;5078724;28;47595;-76
2022/08/08 01:16:57;;;;;;;;;3.67;3.67;;;;;20.69;43.09;101741.38;5090024;27;47634;-76
2022/08/08 01:19:38;;;;;;;;;5.00;4.00;;;;;20.66;43.04;101738.28;5081554;27;45188;-76
2022/08/08 01:22:20;;;;;;;;;3.33;3.33;;;;;20.64;43.07;101735.81;5085148;27;45387;-76
2022/08/08 01:25:08;;;;;;;;;4.67;4.67;;;;;20.63;43.53;101733.31;5080378;28;45428;-76
2022/08/08 01:27:52;;;;;;;;;4.33;4.33;;;;;20.57;43.34;101737.72;5078598;28;48471;-76
2022/08/08 01:30:29;;;;;;;;;5.00;5.00;;;;;20.51;43.36;101728.63;5081392;28;45263;-76
2022/08/08 01:33:16;;;;;;;;;3.00;3.00;;;;;20.50;43.88;101732.34;5080472;28;45353;-76
2022/08/08 01:36:18;;;;;;;;;5.00;5.00;;;;;20.46;43.95;101730.31;5083692;27;45925;-76
2022/08/08 01:39:08;;;;;;;;;3.33;3.33;;;;;20.41;44.20;101723.69;5080139;28;45537;-76
2022/08/08 01:42:10;;;;;;;;;5.00;5.00;;;;;20.38;44.64;101729.53;5080127;27;45321;-76
2022/08/08 01:44:41;;;;;;;;;4.33;4.33;;;;;20.34;44.54;101727.47;5080508;28;45372;-75
2022/08/08 01:47:20;;;;;;;;;5.00;5.00;;;;;20.30;44.69;101732.47;5095729;27;47619;-76
2022/08/08 01:50:11;;;;;;;;;6.00;6.00;;;;;20.23;44.98;101724.41;5066015;28;47628;-75
2022/08/08 01:52:56;;;;;;;;;1.00;1.00;;;;;20.26;45.07;101733.97;5068632;28;45560;-76
2022/08/08 01:55:40;;;;;;;;;8.00;6.33;;;;;20.24;44.99;101728.78;5080070;28;45311;-76
2022/08/08 01:58:27;;;;;;;;;5.00;5.00;;;;;20.16;45.42;101732.56;5080352;28;45412;-75
2022/08/08 02:01:11;;;;;;;;;5.67;5.00;;;;;20.12;45.40;101728.63;5079880;28;46476;-76
2022/08/08 02:03:39;;;;;;;;;5.00;5.00;;;;;20.12;45.49;101733.19;5080117;28;45410;-76
2022/08/08 02:06:23;;;;;;;;;6.00;5.00;;;;;20.10;46.21;101729.88;5083312;27;45435;-75
2022/08/08 02:09:21;;;;;;;;;5.33;5.33;;;;;20.07;45.74;101736.53;5079191;28;47242;-77
2022/08/08 02:11:48;;;;;;;;;5.67;5.00;;;;;20.05;46.00;101728.66;5079693;27;45534;-76
2022/08/08 02:14:22;;;;;;;;;6.67;6.00;;;;;20.06;45.85;101730.28;5079346;28;45417;-76
2022/08/08 02:17:08;;;;;;;;;6.00;5.00;;;;;20.04;46.14;101728.84;5089926;27;45351;-76
2022/08/08 02:19:54;;;;;;;;;5.33;5.33;;;;;20.02;45.94;101731.78;5075971;28;45488;-75
2022/08/08 02:22:32;;;;;;;;;5.00;5.00;;;;;20.00;46.11;101727.59;5086211;27;46400;-76
2022/08/08 02:25:19;;;;;;;;;6.00;6.00;;;;;19.97;46.36;101733.44;5077940;28;45656;-76
2022/08/08 02:27:56;;;;;;;;;7.00;5.67;;;;;19.93;46.10;101730.31;5077962;28;45526;-76
2022/08/08 02:30:38;;;;;;;;;4.33;4.00;;;;;19.87;46.46;101729.31;5079227;28;45317;-76
2022/08/08 02:33:19;;;;;;;;;7.00;7.00;;;;;19.79;46.21;101733.06;5079463;28;46116;-76
2022/08/08 02:35:54;;;;;;;;;7.00;7.00;;;;;19.75;46.83;101734.53;5084538;27;45355;-76
2022/08/08 02:38:40;;;;;;;;;7.33;7.33;;;;;19.73;46.96;101735.78;5077821;28;45293;-75
2022/08/08 02:41:23;;;;;;;;;5.00;5.00;;;;;19.70;47.43;101734.34;5086546;27;46416;-77
2022/08/08 02:43:58;;;;;;;;;5.67;5.67;;;;;19.71;47.43;101736.00;5078997;28;46775;-76
2022/08/08 02:46:57;;;;;;;;;5.67;5.00;;;;;19.69;47.43;101732.66;5088479;27;45937;-76
2022/08/08 02:49:25;;;;;;;;;9.00;8.67;;;;;19.70;47.85;101739.75;5083181;28;45322;-75
2022/08/08 02:51:57;;;;;;;;;9.00;7.33;;;;;19.66;47.53;101738.47;5082584;28;45465;-76
2022/08/08 02:54:37;;;;;;;;;7.67;7.00;;;;;19.64;47.98;101738.69;5086943;27;47237;-75
2022/08/08 02:57:19;;;;;;;;;5.33;5.33;;;;;19.65;48.16;101742.22;5081225;28;45393;-76
2022/08/08 03:00:05;;;;;;;;;6.00;6.00;;;;;19.60;48.35;101734.78;5089877;27;45273;-76
2022/08/08 03:02:56;;;;;;;;;7.00;7.00;;;;;19.54;48.18;101741.84;5083923;28;45275;-75
2022/08/08 03:05:30;;;;;;;;;7.33;7.00;;;;;19.52;48.41;101735.81;5094711;27;48440;-76
2022/08/08 03:08:17;;;;;;;;;7.33;6.33;;;;;19.48;48.80;101744.56;5088586;27;45398;-76
2022/08/08 03:11:04;;;;;;;;;8.00;8.00;;;;;19.39;48.84;101736.66;5082927;28;45366;-76
2022/08/08 03:13:38;;;;;;;;;9.33;9.33;;;;;19.42;48.86;101738.13;5082139;28;45727;-76
2022/08/08 03:16:06;;;;;;;;;8.00;8.00;;;;;19.41;48.94;101734.59;5085244;27;48204;-76
2022/08/08 03:18:57;;;;;;;;;7.00;7.00;;;;;19.39;48.55;101739.38;5090946;27;45803;-76
2022/08/08 03:21:22;;;;;;;;;8.00;8.00;;;;;19.35;49.42;101743.53;5078981;28;45296;-76
2022/08/08 03:23:48;;;;;;;;;7.00;7.00;;;;;19.30;49.03;101735.22;5074211;28;46520;-76
2022/08/08 03:26:15;;;;;;;;;7.33;7.33;;;;;19.25;49.22;101740.44;5082868;28;51772;-76
2022/08/08 03:28:45;;;;;;;;;10.00;7.67;;;;;19.22;49.71;101741.69;5071099;28;45419;-77
2022/08/08 03:33:56;;;;;;;;;10.00;8.33;;;;;19.06;49.84;101745.56;5084522;28;45280;-76
2022/08/08 03:36:22;;;;;;;;;9.33;9.33;;;;;19.03;49.97;101744.13;5083408;28;45444;-78
2022/08/08 03:38:49;;;;;;;;;10.00;10.00;;;;;18.97;50.38;101741.44;5086266;27;45576;-75
2022/08/08 03:41:15;;;;;;;;;9.33;7.00;;;;;18.98;50.06;101745.78;5081449;28;45362;-76
2022/08/08 03:43:40;;;;;;;;;8.00;8.00;;;;;18.98;50.49;101760.09;5082126;28;45418;-76
2022/08/08 03:46:06;;;;;;;;;8.00;8.00;;;;;18.96;50.81;101754.06;5081981;28;46145;-76
2022/08/08 03:48:32;;;;;;;;;7.67;7.67;;;;;18.95;50.54;101752.41;5082137;28;45313;-77
2022/08/08 03:50:57;;;;;;;;;9.67;9.67;;;;;18.89;50.46;101742.47;5087349;27;45335;-76
2022/08/08 03:53:24;;;;;;;;;10.00;8.67;;;;;18.94;50.42;101753.44;5082042;28;45390;-75
2022/08/08 03:55:50;;;;;;;;;8.00;8.00;;;;;18.90;50.54;101750.34;5083277;28;45286;-76
2022/08/08 03:58:23;;;;;;;;;8.00;8.00;;;;;18.86;50.50;101742.88;5081514;28;45393;-77
2022/08/08 04:00:54;;;;;;;;;10.33;9.00;;;;;18.87;51.04;101755.28;5082716;28;45243;-76
2022/08/08 04:03:21;;;;;;;;;8.00;8.00;;;;;18.85;51.64;101760.88;5082335;28;45417;-76
2022/08/08 04:05:47;;;;;;;;;10.67;10.00;;;;;18.81;50.90;101754.25;5081866;28;47552;-76
2022/08/08 04:08:22;;;;;;;;;9.33;9.33;;;;;18.77;50.98;101759.22;5080639;28;45311;-75
2022/08/08 04:10:49;;;;;;;;;10.00;9.00;;;;;18.72;51.01;101761.69;5095867;27;45337;-76
2022/08/08 04:13:16;;;;;;;;;8.00;7.67;;;;;18.72;51.06;101753.63;5081459;28;45247;-76
2022/08/08 04:15:42;;;;;;;;;10.00;9.67;;;;;18.71;51.46;101754.66;5080806;27;48394;-76
2022/08/08 04:18:07;;;;;;;;;10.00;9.67;;;;;18.73;51.78;101759.81;5092587;27;45418;-75
2022/08/08 04:20:33;;;;;;;;;13.33;10.00;;;;;18.71;51.52;101760.06;5081239;28;45717;-75
2022/08/08 04:22:58;;;;;;;;;10.33;10.33;;;;;18.65;51.48;101758.97;5081689;28;45425;-75
2022/08/08 04:25:23;;;;;;;;;10.33;10.33;;;;;18.66;52.09;101766.03;5080219;28;47327;-76
2022/08/08 04:27:49;;;;;;;;;10.00;10.00;;;;;18.62;51.65;101762.06;5081802;28;45331;-76
2022/08/08 04:30:14;;;;;;;;;7.33;7.33;;;;;18.53;51.74;101750.66;5076583;28;45649;-76
2022/08/08 04:32:39;;;;;;;;;10.00;10.00;;;;;18.54;51.78;101760.44;5080447;28;45461;-75
2022/08/08 04:35:05;;;;;;;;;7.33;7.33;;;;;18.57;51.96;101758.34;5082191;28;46265;-76
2022/08/08 04:37:30;;;;;;;;;11.67;10.33;;;;;18.55;52.18;101763.94;5087713;27;45405;-75
2022/08/08 04:39:56;;;;;;;;;8.00;8.00;;;;;18.60;52.30;101771.41;5081367;28;45474;-75
2022/08/08 04:42:24;;;;;;;;;9.67;9.00;;;;;18.52;51.82;101762.47;5081215;28;45467;-76
2022/08/08 04:44:50;;;;;;;;;10.00;9.00;;;;;18.49;52.05;101764.72;5080015;28;47543;-76
2022/08/08 04:47:15;;;;;;;;;12.00;12.00;;;;;18.49;52.57;101765.56;5082097;28;45400;-75
2022/08/08 04:49:41;;;;;;;;;12.67;10.00;;;;;18.47;52.38;101773.00;5081701;28;45138;-76
2022/08/08 04:52:06;;;;;;;;;11.00;11.00;;;;;18.46;53.11;101779.44;5093348;27;46260;-76
2022/08/08 04:54:31;;;;;;;;;8.00;8.00;;;;;18.41;53.51;101771.97;5081369;28;48095;-76
2022/08/08 04:56:57;;;;;;;;;10.67;10.00;;;;;18.45;53.02;101782.31;5081847;28;45321;-75
2022/08/08 04:59:22;;;;;;;;;9.33;9.00;;;;;18.45;52.87;101775.09;5081235;28;45725;-75
2022/08/08 05:01:47;;;;;;;;;12.33;11.00;;;;;18.37;52.47;101761.78;5088121;27;46072;-76
2022/08/08 05:04:13;;;;;;;;;11.00;10.33;;;;;18.42;52.39;101791.63;5080093;28;47542;-76
2022/08/08 05:06:38;;;;;;;;;12.33;11.33;;;;;18.34;52.57;101786.41;5082261;28;45626;-75
2022/08/08 05:09:04;;;;;;;;;12.33;11.67;;;;;18.27;53.35;101776.47;5078273;28;45319;-75
2022/08/08 05:11:30;;;;;;;;;10.33;9.33;;;;;18.28;53.04;101788.06;5081302;28;45439;-76
2022/08/08 05:13:55;;;;;;;;;12.00;11.00;;;;;18.27;53.25;101786.41;5075907;28;45428;-76
2022/08/08 05:16:21;;;;;;;;;12.00;11.33;;;;;18.30;53.52;101796.75;5083503;27;45377;-75
2022/08/08 05:18:46;;;;;;;;;9.00;9.00;;;;;18.25;53.34;101791.13;5081772;28;45359;-75
2022/08/08 05:21:12;;;;;;;;;10.67;10.67;;;;;18.24;53.56;101793.03;5080144;28;46023;-75
2022/08/08 05:23:38;;;;;;;;;9.00;9.00;;;;;18.26;53.45;101801.69;5069343;28;45303;-76
2022/08/08 05:26:03;;;;;;;;;11.00;11.00;;;;;18.24;53.47;101798.41;5081636;27;45293;-75
2022/08/08 05:28:29;;;;;;;;;15.33;12.67;;;;;18.26;53.85;101793.63;5082675;28;45214;-74
2022/08/08 05:30:54;;;;;;;;;10.33;10.33;;;;;18.27;54.17;101799.84;5070986;28;45551;-75
2022/08/08 05:33:20;;;;;;;;;10.33;10.33;;;;;18.29;53.66;101800.50;5078434;28;46965;-75
2022/08/08 05:35:46;;;;;;;;;10.33;10.33;;;;;18.28;54.33;101798.81;5083168;28;45262;-74
2022/08/08 05:38:14;;;;;;;;;15.67;13.00;;;;;18.30;53.70;101812.91;5082000;28;45389;-75
2022/08/08 05:40:51;;;;;;;;;13.33;12.00;;;;;18.32;54.08;101808.16;5072344;28;45789;-76
2022/08/08 05:43:27;;;;;;;;;14.00;13.00;;;;;18.39;54.17;101814.41;5064779;28;45423;-76
2022/08/08 05:46:00;;;;;;;;;14.67;12.67;;;;;18.36;54.02;101814.81;5073747;28;45636;-76
2022/08/08 05:48:26;;;;;;;;;11.33;11.00;;;;;18.33;53.99;101815.22;5080939;28;45291;-78
2022/08/08 05:50:52;;;;;;;;;12.67;11.33;;;;;18.32;54.32;101821.63;5081173;28;45555;-76
2022/08/08 05:53:24;;;;;;;;;11.00;11.00;;;;;18.26;54.16;101815.16;5079965;28;45549;-75
2022/08/08 05:55:51;;;;;;;;;12.33;11.33;;;;;18.30;54.79;101820.97;5080990;28;45501;-75
2022/08/08 05:58:18;;;;;;;;;18.00;18.00;;;;;18.32;54.47;101823.47;5077581;28;45387;-75
2022/08/08 06:00:45;;;;;;;;;17.33;16.33;;;;;18.25;55.35;101813.50;5075291;28;45290;-75
2022/08/08 06:03:15;;;;;;;;;16.67;15.67;;;;;18.32;55.12;101827.00;5091393;27;47368;-76
2022/08/08 06:05:54;;;;;;;;;14.33;14.33;;;;;18.34;54.67;101826.78;5072348;28;45679;-77
2022/08/08 06:08:33;;;;;;;;;12.33;12.00;;;;;18.44;55.34;101832.66;5079259;28;45337;-75
2022/08/08 06:10:59;;;;;;;;;15.00;15.00;;;;;18.47;55.01;101836.78;5078019;28;47191;-75
2022/08/08 06:13:27;;;;;;;;;13.00;12.00;;;;;18.46;54.96;101825.19;5077424;28;48502;-75
2022/08/08 06:15:56;;;;;;;;;10.33;10.00;;;;;18.53;54.61;101831.41;5081980;27;45169;-76
2022/08/08 06:18:23;;;;;;;;;12.00;11.00;;;;;18.57;55.14;101833.72;5077633;27;45452;-75
2022/08/08 06:20:54;;;;;;;;;12.00;11.67;;;;;18.60;55.09;101838.69;5061159;28;45418;-76
2022/08/08 06:23:25;;;;;;;;;12.33;12.00;;;;;18.68;54.47;101839.34;5061267;28;45687;-76
2022/08/08 06:26:02;;;;;;;;;13.33;13.33;;;;;18.72;54.98;101836.25;5074641;28;45352;-75
2022/08/08 06:28:32;;;;;;;;;12.33;11.67;;;;;18.81;54.86;101845.81;5067435;28;45279;-77
2022/08/08 06:31:00;;;;;;;;;12.33;11.67;;;;;18.85;54.98;101855.13;5079286;28;45448;-75
2022/08/08 06:33:42;;;;;;;;;11.00;11.00;;;;;18.88;54.63;101849.34;5079100;28;46455;-75
2022/08/08 06:36:11;;;;;;;;;13.00;12.33;;;;;18.97;54.45;101852.69;5070775;28;45409;-76
2022/08/08 06:38:44;;;;;;;;;12.00;11.00;;;;;19.08;54.90;101854.00;5075773;27;45407;-75
2022/08/08 06:41:15;;;;;;;;;15.00;15.00;;;;;19.13;54.17;101858.78;5078825;27;45365;-75
2022/08/08 06:43:44;;;;;;;;;14.00;11.67;;;;;19.20;54.54;101870.38;5073428;28;46138;-75
2022/08/08 06:46:10;;;;;;;;;14.00;13.00;;;;;19.22;54.35;101856.72;5077619;27;45446;-76
2022/08/08 06:48:36;;;;;;;;;12.00;10.00;;;;;19.36;54.08;101871.84;5077215;28;45369;-76
2022/08/08 06:51:03;;;;;;;;;13.00;11.67;;;;;19.42;53.43;101871.03;5077469;27;45376;-76
2022/08/08 06:53:28;;;;;;;;;10.67;10.67;;;;;19.45;53.59;101869.78;5073603;28;45579;-76
2022/08/08 06:55:56;;;;;;;;;10.00;10.00;;;;;19.53;53.96;101866.06;5059409;28;45254;-75
2022/08/08 06:58:22;;;;;;;;;9.33;9.33;;;;;19.61;53.64;101867.72;5077206;28;45456;-75
2022/08/08 07:00:49;;;;;;;;;14.00;12.67;;;;;19.71;53.70;101860.03;5077299;27;45350;-76
2022/08/08 07:03:29;;;;;;;;;12.00;12.00;;;;;19.78;53.49;101862.72;5077152;27;45436;-76
2022/08/08 07:05:56;;;;;;;;;14.00;13.33;;;;;19.86;53.07;101862.53;5076689;28;45312;-76
2022/08/08 07:08:37;;;;;;;;;10.33;10.33;;;;;19.93;52.54;101862.50;5077382;28;45458;-76
2022/08/08 07:11:04;;;;;;;;;12.33;11.33;;;;;20.04;52.38;101870.00;5071546;28;46240;-77
2022/08/08 07:13:38;;;;;;;;;11.33;11.33;;;;;20.12;52.47;101873.50;5065916;28;46293;-76
2022/08/08 07:16:27;;;;;;;;;10.33;10.00;;;;;20.18;52.20;101881.56;5059400;27;45672;-75
2022/08/08 07:19:05;;;;;;;;;10.33;8.33;;;;;20.28;52.54;101881.16;5066604;28;45489;-74
2022/08/08 07:21:49;;;;;;;;;9.33;9.33;;;;;20.31;52.15;101878.03;5065925;28;45414;-77
2022/08/08 07:24:36;;;;;;;;;7.33;7.33;;;;;20.42;51.87;101891.91;5091123;27;47466;-73
2022/08/08 07:27:05;;;;;;;;;8.67;8.67;;;;;20.50;51.94;101888.97;5069021;28;45444;-76
2022/08/08 07:29:33;;;;;;;;;11.00;10.67;;;;;20.52;51.82;101886.88;5060265;28;45201;-75
2022/08/08 07:31:58;;;;;;;;;10.67;10.67;;;;;20.57;51.25;101891.66;5064977;28;46287;-75
2022/08/08 07:34:25;;;;;;;;;12.00;11.67;;;;;20.61;51.03;101886.63;5061427;28;45397;-76
2022/08/08 07:36:52;;;;;;;;;11.00;11.00;;;;;20.67;51.24;101888.47;5081700;28;45354;-75
2022/08/08 07:39:22;;;;;;;;;11.00;11.00;;;;;20.75;51.37;101896.34;5071379;28;45409;-76
2022/08/08 07:41:48;;;;;;;;;10.00;10.00;;;;;20.85;51.29;101905.84;5074779;28;45307;-76
2022/08/08 07:44:15;;;;;;;;;11.00;10.33;;;;;20.85;50.88;101897.75;5081550;28;46464;-75
2022/08/08 07:46:41;;;;;;;;;9.00;8.67;;;;;20.93;51.07;101898.38;5081233;28;45346;-75
2022/08/08 07:49:06;;;;;;;;;8.00;7.67;;;;;21.01;51.06;101893.75;5079437;28;45421;-75
2022/08/08 07:51:32;;;;;;;;;9.67;9.67;;;;;21.12;50.58;101906.56;5081096;27;45688;-77
2022/08/08 07:54:09;;;;;;;;;10.33;10.33;;;;;21.21;50.81;101900.91;5079167;28;46039;-77
2022/08/08 07:57:20;;;;;;;;;10.00;9.00;;;;;21.36;49.96;101901.44;5077565;27;45734;-80
2022/08/08 07:59:55;;;;;;;;;10.00;9.67;;;;;21.44;49.71;101895.78;5051434;28;45326;-81
2022/08/08 08:02:25;;;;;;;;;9.67;9.67;;;;;21.57;49.60;101900.25;5075459;28;45341;-79
2022/08/08 08:04:59;;;;;;;;;11.33;10.67;;;;;21.61;49.31;101891.69;5079333;28;46386;-79
2022/08/08 08:07:26;;;;;;;;;8.67;8.67;;;;;21.73;49.34;101902.63;5071307;28;45241;-76
2022/08/08 08:09:54;;;;;;;;;8.33;8.33;;;;;21.78;49.44;101897.38;5071879;28;45427;-76
2022/08/08 08:12:21;;;;;;;;;9.67;8.67;;;;;21.84;48.74;101888.38;5079769;27;45468;-76
2022/08/08 08:15:04;;;;;;;;;10.00;9.00;;;;;22.00;48.71;101897.00;5073829;28;45490;-76
2022/08/08 08:17:29;;;;;;;;;7.00;7.00;;;;;22.12;48.64;101891.66;5076037;27;45341;-75
2022/08/08 08:19:58;;;;;;;;;10.67;10.67;;;;;22.21;48.47;101887.63;5079628;27;45441;-75
2022/08/08 08:22:23;;;;;;;;;9.67;9.67;;;;;22.33;48.56;101893.09;5081104;28;45468;-76
2022/08/08 08:24:49;;;;;;;;;9.67;8.67;;;;;22.42;47.77;101886.31;5079164;28;46537;-76
2022/08/08 08:27:15;;;;;;;;;7.00;7.00;;;;;22.51;47.73;101892.25;5080806;27;45328;-78
2022/08/08 08:29:40;;;;;;;;;9.00;8.00;;;;;22.59;47.73;101883.03;5080638;28;45305;-76
2022/08/08 08:32:06;;;;;;;;;9.00;8.33;;;;;22.70;47.41;101882.28;5080724;28;45542;-74
2022/08/08 08:34:32;;;;;;;;;5.00;5.00;;;;;22.82;46.48;101892.31;5081346;28;46383;-75
2022/08/08 08:36:57;;;;;;;;;7.67;7.67;;;;;22.91;46.12;101888.25;5065641;28;45882;-74
2022/08/08 08:39:22;;;;;;;;;7.00;7.00;;;;;22.99;45.61;101878.97;5079468;28;45440;-75
2022/08/08 08:41:49;;;;;;;;;5.67;5.67;;;;;23.09;45.61;101886.53;5080541;27;45468;-75
2022/08/08 08:44:16;;;;;;;;;6.67;6.67;;;;;23.18;45.76;101882.44;5080593;28;46492;-74
2022/08/08 08:46:42;;;;;;;;;6.00;6.00;;;;;23.32;45.33;101887.66;5080433;28;45326;-75
2022/08/08 08:49:08;;;;;;;;;7.00;6.00;;;;;23.45;45.36;101892.91;5085893;27;45431;-76
2022/08/08 08:51:40;;;;;;;;;6.00;6.00;;;;;23.56;44.55;101896.66;5061037;28;45500;-75
2022/08/08 08:54:06;;;;;;;;;6.33;6.33;;;;;23.63;44.01;101887.59;5080401;28;45663;-75
2022/08/08 08:56:35;;;;;;;;;4.00;4.00;;;;;23.77;43.98;101893.63;5079508;28;45274;-75
2022/08/08 08:59:03;;;;;;;;;5.33;5.33;;;;;23.85;43.42;101885.13;5061694;28;45328;-74
2022/08/08 09:01:41;;;;;;;;;4.00;4.00;;;;;23.92;43.32;101876.88;5072811;28;45532;-74
2022/08/08 09:04:14;;;;;;;;;5.00;5.00;;;;;24.03;43.02;101875.22;5080270;28;45398;-74
2022/08/08 09:06:47;;;;;;;;;5.33;5.33;;;;;24.12;42.48;101870.25;5080293;28;45305;-75
2022/08/08 09:09:19;;;;;;;;;7.33;6.00;;;;;24.25;42.47;101880.88;5066202;28;45706;-73
2022/08/08 09:11:46;;;;;;;;;6.67;6.67;;;;;24.38;41.86;101884.38;5075045;28;45286;-74
2022/08/08 09:14:13;;;;;;;;;5.33;5.33;;;;;24.38;41.79;101870.78;5062546;28;48098;-73
2022/08/08 09:16:38;;;;;;;;;5.33;5.33;;;;;24.41;40.87;101860.28;5064445;27;45697;-74
2022/08/08 09:19:04;;;;;;;;;0.00;0.00;;;;;24.54;40.70;101869.22;5072174;28;45319;-76
2022/08/08 09:21:30;;;;;;;;;6.67;6.67;;;;;24.63;41.08;101880.53;5077000;27;45333;-75
2022/08/08 09:23:57;;;;;;;;;6.67;4.33;;;;;24.70;40.74;101873.06;5055319;28;47116;-76
2022/08/08 09:26:39;;;;;;;;;4.00;4.00;;;;;24.74;40.31;101863.34;5065086;28;46714;-75
2022/08/08 09:29:06;;;;;;;;;5.67;5.67;;;;;24.86;40.40;101871.44;5068986;28;45373;-74
2022/08/08 09:31:50;;;;;;;;;5.00;3.33;;;;;24.99;39.67;101881.19;5079779;28;45445;-76
2022/08/08 09:34:18;;;;;;;;;4.33;4.33;;;;;25.02;39.41;101869.84;5085610;27;47570;-75
2022/08/08 09:36:46;;;;;;;;;2.00;2.00;;;;;25.11;38.98;101872.97;5077859;28;45373;-75
2022/08/08 09:39:17;;;;;;;;;6.33;5.33;;;;;25.21;38.61;101859.59;5079194;28;45210;-76
2022/08/08 09:41:42;;;;;;;;;4.67;4.67;;;;;25.33;38.71;101872.25;5077847;28;47338;-76
2022/08/08 09:44:19;;;;;;;;;4.67;4.67;;;;;25.38;38.72;101866.09;5077867;28;47138;-75
2022/08/08 09:46:49;;;;;;;;;5.00;5.00;;;;;25.44;38.34;101862.38;5079326;28;45338;-77
2022/08/08 09:49:19;;;;;;;;;6.00;5.00;;;;;25.56;38.27;101867.72;5073277;28;45492;-77
2022/08/08 09:51:51;;;;;;;;;5.00;4.00;;;;;25.61;38.16;101865.09;5066000;28;45358;-75
2022/08/08 09:54:21;;;;;;;;;6.00;6.00;;;;;25.75;37.97;101864.75;5075643;28;45424;-77
2022/08/08 09:56:54;;;;;;;;;4.00;4.00;;;;;25.78;36.48;101861.53;5076406;28;45248;-78
2022/08/08 09:59:28;;;;;;;;;5.00;5.00;;;;;25.89;37.84;101865.22;5085220;27;45389;-76
2022/08/08 10:01:55;;;;;;;;;5.00;5.00;;;;;25.96;37.54;101866.69;5079433;28;45417;-75
2022/08/08 10:04:27;;;;;;;;;3.00;3.00;;;;;26.07;37.29;101864.91;5079313;28;45302;-78
2022/08/08 10:06:53;;;;;;;;;5.00;5.00;;;;;26.21;37.39;101853.66;5079454;28;45394;-75
2022/08/08 10:09:29;;;;;;;;;5.33;5.33;;;;;26.32;36.65;101857.34;5079270;28;45342;-75
2022/08/08 10:11:55;;;;;;;;;3.00;3.00;;;;;26.40;37.47;101853.38;5079106;28;45464;-75
2022/08/08 10:14:32;;;;;;;;;5.00;5.00;;;;;26.57;36.61;101856.00;5079404;28;47087;-76
2022/08/08 10:16:57;;;;;;;;;4.33;4.33;;;;;26.63;36.26;101840.53;5072509;27;45469;-74
2022/08/08 10:19:36;;;;;;;;;5.00;5.00;;;;;26.83;36.08;101851.63;5062497;27;45304;-75
2022/08/08 10:22:03;;;;;;;;;5.00;5.00;;;;;27.01;35.76;101843.34;5079600;28;45406;-75
2022/08/08 10:24:30;;;;;;;;;4.33;4.00;;;;;27.18;35.59;101854.13;5079002;28;45454;-73
2022/08/08 10:27:05;;;;;;;;;4.00;4.00;;;;;27.33;34.29;101851.50;5079263;28;45325;-74
2022/08/08 10:29:33;;;;;;;;;5.00;5.00;;;;;27.44;34.78;101848.84;5079318;28;45254;-74
2022/08/08 10:34:52;;;;;;;;;4.67;4.67;;;;;27.69;33.79;101839.22;5079113;28;45480;-75
2022/08/08 10:37:26;;;;;;;;;4.00;4.00;;;;;27.91;34.22;101850.00;5074574;28;46117;-76
2022/08/08 10:39:53;;;;;;;;;6.00;6.00;;;;;28.06;34.15;101851.97;5068642;28;45405;-77
2022/08/08 10:42:21;;;;;;;;;5.00;5.00;;;;;28.19;33.32;101847.91;5084773;27;46779;-75
2022/08/08 10:44:46;;;;;;;;;5.33;4.00;;;;;28.33;33.12;101839.25;5078977;28;45550;-78
2022/08/08 10:47:14;;;;;;;;;4.33;4.33;;;;;28.47;32.72;101840.41;5078635;28;45449;-76
2022/08/08 10:49:41;;;;;;;;;3.67;3.67;;;;;28.69;32.22;101847.53;5078012;28;45260;-76
2022/08/08 10:52:07;;;;;;;;;5.67;5.67;;;;;28.81;32.79;101830.88;5071318;27;45266;-78
2022/08/08 10:54:32;;;;;;;;;6.00;6.00;;;;;28.98;32.20;101835.28;5074681;27;45403;-75
2022/08/08 10:56:59;;;;;;;;;5.00;5.00;;;;;29.16;31.56;101838.53;5078125;28;45384;-75
2022/08/08 10:59:25;;;;;;;;;5.00;5.00;;;;;29.27;31.50;101834.69;5078593;28;45376;-75
2022/08/08 11:01:51;;;;;;;;;3.33;3.33;;;;;29.44;30.87;101836.31;5076507;28;45378;-75
2022/08/08 11:04:16;;;;;;;;;4.00;4.00;;;;;29.63;31.10;101833.84;5073468;28;45911;-74
2022/08/08 11:06:41;;;;;;;;;5.00;5.00;;;;;29.74;30.30;101824.50;5073671;28;45467;-76
2022/08/08 11:09:09;;;;;;;;;5.00;5.00;;;;;29.88;30.76;101831.28;5080850;28;45508;-75
2022/08/08 11:11:40;;;;;;;;;6.33;5.00;;;;;30.01;30.96;101833.44;5081232;28;45452;-76
2022/08/08 11:14:07;;;;;;;;;4.33;4.33;;;;;30.05;29.79;101831.75;5081949;28;45369;-77
2022/08/08 11:16:34;;;;;;;;;5.00;5.00;;;;;30.11;30.53;101838.84;5084910;27;45561;-75
2022/08/08 11:19:00;;;;;;;;;4.67;4.33;;;;;30.18;30.37;101846.00;5072535;28;45291;-75
2022/08/08 11:21:29;;;;;;;;;4.00;4.00;;;;;30.35;30.45;101837.41;5078100;27;45766;-77
2022/08/08 11:23:58;;;;;;;;;4.00;4.00;;;;;30.54;29.95;101845.78;5078672;28;45934;-77
2022/08/08 11:26:26;;;;;;;;;3.00;2.33;;;;;30.70;29.33;101826.47;5064463;28;45635;-78
2022/08/08 11:28:54;;;;;;;;;4.67;4.67;;;;;30.90;29.15;101830.19;5077744;28;45292;-78
2022/08/08 11:31:24;;;;;;;;;3.67;3.67;;;;;31.01;29.20;101825.44;5065001;28;45704;-76
2022/08/08 11:33:51;;;;;;;;;5.00;5.00;;;;;31.21;28.83;101836.22;5056586;28;47219;-76
2022/08/08 11:36:18;;;;;;;;;3.67;3.67;;;;;31.35;28.68;101824.59;5058465;28;46664;-77
2022/08/08 11:38:46;;;;;;;;;5.00;5.00;;;;;31.43;28.12;101825.88;5060369;28;45480;-77
2022/08/08 11:41:14;;;;;;;;;3.00;3.00;;;;;31.55;28.18;101826.31;5065133;28;45916;-77
2022/08/08 11:43:41;;;;;;;;;2.67;2.67;;;;;31.65;27.91;101822.63;5069289;28;45762;-76
2022/08/08 11:46:07;;;;;;;;;3.00;3.00;;;;;31.71;26.83;101817.88;5082188;28;45327;-75
2022/08/08 11:48:33;;;;;;;;;3.00;2.33;;;;;31.79;26.62;101811.75;5079810;28;45445;-75
2022/08/08 11:50:59;;;;;;;;;3.00;3.00;;;;;31.89;26.11;101827.28;5081152;27;45758;-74